Wiscasset, ME (04578)

7:21 AM EST on February 12, 2016 (GMT -0500)
Acorn Road | | Change Station
CLOSE
Current Station
Personal Weather Station
Location: Wiscasset, ME
Elevation: 144 ft
Nearby Weather Stations

Elev 144 ft 44.00 °N, 69.70 °W | Updated 27 seconds ago

Clear
Clear
-1.5 °F
Feels Like -1 °F
N
0.0
Wind Variable Wind from WNW
Gusts 1.0 mph

Today
High -- | Low -- °F
--% Chance of Precip.
Yesterday
High -- | Low -- °F
Precip. -- in
Pressure 30.12 in
Visibility 10.0 miles
Clouds Clear
Windchill -1 °F
Dew Point -10 °F
Humidity 66%
Rainfall 0.00 in
Snow Depth Not available.
6:42 AM 5:03 PM
Waxing Crescent, 20% visible
METAR KIWI 121153Z AUTO 00000KT 10SM CLR M21/M24 A3012 RMK AO2 SLP199 70002 T12111244 11161 21217 53025
Pressure 30.12 in
Visibility 10.0 miles
Clouds Clear
Windchill -1 °F
Dew Point -10 °F
Humidity 66%
Rainfall 0.00 in
Snow Depth Not available.
6:42 AM 5:03 PM
Waxing Crescent, 20% visible
METAR KIWI 121153Z AUTO 00000KT 10SM CLR M21/M24 A3012 RMK AO2 SLP199 70002 T12111244 11161 21217 53025

10-Day Weather Forecast

Almanac

Astronomy

Feb. 12, 2016 Rise Set
Actual Time
Civil Twilight
Nautical Twilight
Astronomical Twilight
Moon
Length of Visible Light
Length of Day
Tomorrow will be .
, % of the Moon is Illuminated

Today's Extremes

State Highs State Lows

Community

WunderPhotos

Upload Photos

1,892,295 photos uploaded!

WunderBlog® & News

Nearby

Air Quality

  Air Quality AQ Index Pollutant
Not available.

Snow Depth

Station Depth Elevation

Earthquake Activity

City Distance Mag. Time & Date
Minimum magnitude displayed is 2.5.

Coastal Water Temperatures

Place Temperature

Stations

Nearby Weather Stations

Station Location Temp. Windchill Dew Point Humidity Wind Precip. Elev Updated Type
                   

Watches & Warnings

There are currently no watches in effect.